createdAt,value
2018-02-20T04:48:45.985Z,1010.12
2018-02-20T04:49:45.927Z,1010.15
2018-02-20T04:51:39.360Z,1010.07
2018-02-20T04:52:39.304Z,1010.09
2018-02-20T04:54:32.697Z,1010.09
2018-02-20T04:55:32.689Z,1010.06
2018-02-20T04:57:27.126Z,1010.07
2018-02-20T04:58:27.082Z,1010.07
2018-02-20T05:00:21.472Z,1010.06
2018-02-20T05:01:21.481Z,1010.06
2018-02-20T05:03:15.906Z,1010.02
2018-02-20T05:04:15.939Z,1010.07
2018-02-20T05:06:09.302Z,1010.08
2018-02-20T05:07:09.254Z,1010.12
2018-02-20T05:08:09.259Z,1010.12
2018-02-20T05:09:09.263Z,1010.07
2018-02-20T05:10:09.268Z,1010.12
2018-02-20T05:11:09.272Z,1010.13
2018-02-20T05:12:09.295Z,1010.11
2018-02-20T05:13:09.283Z,1010.10
2018-02-20T05:14:09.294Z,1010.11
2018-02-20T05:15:09.290Z,1010.13
2018-02-20T05:16:09.295Z,1010.12
2018-02-20T05:17:09.300Z,1010.10
2018-02-20T05:18:09.310Z,1010.11
2018-02-20T05:19:09.313Z,1010.09
2018-02-20T05:20:09.320Z,1010.15
2018-02-20T05:21:09.322Z,1010.13
2018-02-20T05:22:09.327Z,1010.13
2018-02-20T05:23:09.329Z,1010.13
2018-02-20T05:24:09.336Z,1010.09
2018-02-20T05:25:09.347Z,1010.09
2018-02-20T05:26:09.347Z,1010.06
2018-02-20T05:27:09.352Z,1010.06
2018-02-20T05:28:09.358Z,1010.08
2018-02-20T05:29:09.361Z,1010.04
2018-02-20T05:30:09.370Z,1010.05
2018-02-20T05:31:09.373Z,1010.03
2018-02-20T05:32:09.378Z,1010.08
2018-02-20T05:33:09.386Z,1010.11
2018-02-20T05:34:09.388Z,1010.08
2018-02-20T05:35:09.396Z,1010.11
2018-02-20T05:36:09.402Z,1010.14
2018-02-20T05:37:09.415Z,1010.17
2018-02-20T05:38:09.412Z,1010.12
2018-02-20T05:39:09.418Z,1010.13
2018-02-20T05:40:09.424Z,1010.16
2018-02-20T05:41:09.430Z,1010.15
2018-02-20T05:42:09.435Z,1010.18
2018-02-20T05:43:09.440Z,1010.22
2018-02-20T05:44:09.448Z,1010.19
2018-02-20T05:45:09.453Z,1010.22
2018-02-20T05:46:09.460Z,1010.22
2018-02-20T05:47:09.484Z,1010.28
2018-02-20T05:48:09.474Z,1010.25
2018-02-20T05:49:09.477Z,1010.31
2018-02-20T05:50:09.483Z,1010.29
2018-02-20T05:51:09.493Z,1010.31
2018-02-20T05:52:09.497Z,1010.31
2018-02-20T05:53:09.504Z,1010.31
2018-02-20T05:54:09.509Z,1010.34
2018-02-20T05:55:09.516Z,1010.34
2018-02-20T05:56:09.534Z,1010.36
2018-02-20T05:57:09.530Z,1010.33
2018-02-20T05:58:09.538Z,1010.35
2018-02-20T05:59:09.545Z,1010.42
2018-02-20T06:00:09.550Z,1010.42
2018-02-20T06:01:09.557Z,1010.40
2018-02-20T06:02:09.562Z,1010.41
2018-02-20T06:03:09.573Z,1010.42
2018-02-20T06:04:09.579Z,1010.46
2018-02-20T06:05:09.585Z,1010.48
2018-02-20T06:06:09.594Z,1010.48
2018-02-20T06:07:09.598Z,1010.49
2018-02-20T06:08:09.616Z,1010.50
2018-02-20T06:09:09.614Z,1010.50
2018-02-20T06:10:09.637Z,1010.51
2018-02-20T06:11:09.625Z,1010.51
2018-02-20T06:12:09.634Z,1010.52
2018-02-20T06:13:09.690Z,1010.50
2018-02-20T06:14:09.646Z,1010.52
2018-02-20T06:15:09.654Z,1010.54
2018-02-20T06:16:09.661Z,1010.53
2018-02-20T06:17:09.670Z,1010.56
2018-02-20T06:18:09.677Z,1010.55
2018-02-20T06:19:09.681Z,1010.52
2018-02-20T06:20:09.689Z,1010.54
2018-02-20T06:21:09.699Z,1010.56
2018-02-20T06:22:09.706Z,1010.56
2018-02-20T06:23:09.739Z,1010.57
2018-02-20T06:24:09.716Z,1010.58
2018-02-20T06:25:09.724Z,1010.57
2018-02-20T06:26:09.731Z,1010.56
2018-02-20T06:27:09.736Z,1010.54
2018-02-20T06:28:09.746Z,1010.57
2018-02-20T06:29:09.753Z,1010.59
2018-02-20T06:30:09.759Z,1010.60
2018-02-20T06:31:09.784Z,1010.60
2018-02-20T06:32:09.775Z,1010.65
2018-02-20T06:33:09.781Z,1010.63
2018-02-20T06:34:09.789Z,1010.64
2018-02-20T06:35:09.795Z,1010.62
2018-02-20T06:36:09.802Z,1010.63
2018-02-20T06:37:09.810Z,1010.61
2018-02-20T06:54:18.080Z,1010.55
2018-02-20T06:55:18.015Z,1010.55
2018-02-20T06:57:11.450Z,1010.57
2018-02-20T06:58:11.401Z,1010.59
2018-02-20T07:00:04.794Z,1010.58
2018-02-20T07:01:04.791Z,1010.58
2018-02-20T07:02:58.248Z,1010.62
2018-02-20T07:03:58.189Z,1010.60
2018-02-20T07:05:51.587Z,1010.61
2018-02-20T07:06:51.587Z,1010.61
2018-02-20T07:08:45.033Z,1010.60
2018-02-20T07:09:44.985Z,1010.56
2018-02-20T07:11:38.394Z,1010.58
2018-02-20T07:12:38.393Z,1010.55
2018-02-20T07:14:31.836Z,1010.54
2018-02-20T07:15:31.793Z,1010.54
2018-02-20T07:50:07.256Z,1010.62
2018-02-20T07:51:07.178Z,1010.59
2018-02-20T07:53:00.608Z,1010.60
2018-02-20T07:54:00.566Z,1010.67
2018-02-20T07:55:53.952Z,1010.65
2018-02-20T07:56:53.948Z,1010.70
2018-02-20T07:58:47.387Z,1010.71
2018-02-20T07:59:47.347Z,1010.69
2018-02-20T08:00:36.937Z,1010.69
2018-02-20T08:02:44.587Z,1010.70
2018-02-20T08:03:44.536Z,1010.70
2018-02-20T08:05:37.934Z,1010.68
2018-02-20T08:06:37.939Z,1010.69
2018-02-20T08:08:31.373Z,1010.67
2018-02-20T19:16:15.306Z,1013.16
2018-02-20T19:17:15.197Z,1013.11
2018-02-20T19:19:08.627Z,1013.11
2018-02-20T19:20:08.577Z,1013.13
2018-02-20T19:21:08.592Z,1013.16
2018-02-20T19:22:08.575Z,1013.12
2018-02-20T19:23:08.574Z,1013.11
2018-02-20T19:24:08.576Z,1013.10
2018-02-20T19:25:08.575Z,1013.11
2018-02-20T19:26:08.578Z,1013.13
2018-02-20T19:27:08.579Z,1013.12
2018-02-20T19:28:08.581Z,1013.12
2018-02-20T19:29:08.583Z,1013.13
2018-02-20T19:30:08.591Z,1013.12
2018-02-20T19:31:09.188Z,1013.16
2018-02-20T19:32:08.593Z,1013.16
2018-02-20T19:33:08.597Z,1013.18
2018-02-20T19:34:08.600Z,1013.15
2018-02-20T19:35:08.607Z,1013.16
2018-02-20T19:36:08.607Z,1013.15
2018-02-20T19:37:08.647Z,1013.16
2018-02-20T19:38:08.672Z,1013.18
2018-02-20T19:39:08.622Z,1013.18
2018-02-20T19:40:08.625Z,1013.22
2018-02-20T19:41:08.629Z,1013.22
2018-02-20T19:42:08.636Z,1013.28
2018-02-20T19:43:08.638Z,1013.34
2018-02-20T19:44:08.642Z,1013.29
2018-02-20T19:45:08.648Z,1013.32
2018-02-20T19:46:08.650Z,1013.34
2018-02-20T19:47:08.659Z,1013.37
2018-02-20T19:48:08.662Z,1013.35
2018-02-20T19:49:08.667Z,1013.43
2018-02-20T19:50:08.680Z,1013.39
2018-02-20T19:51:08.675Z,1013.46
2018-02-20T19:52:08.701Z,1013.47
2018-02-20T19:53:08.685Z,1013.46
2018-02-20T19:54:08.691Z,1013.47
2018-02-20T19:55:08.697Z,1013.48
2018-02-20T19:56:08.716Z,1013.49
2018-02-20T19:57:08.754Z,1013.54
2018-02-20T19:58:08.715Z,1013.52
2018-02-20T19:59:08.714Z,1013.54
2018-02-20T20:00:08.719Z,1013.53
2018-02-20T20:01:08.739Z,1013.58
2018-02-20T20:02:08.752Z,1013.55
2018-02-20T20:03:08.734Z,1013.61
2018-02-20T20:04:08.738Z,1013.63
2018-02-20T20:05:08.744Z,1013.61
2018-02-20T20:06:08.772Z,1013.63
2018-02-20T20:07:08.753Z,1013.61
2018-02-20T20:08:08.757Z,1013.63
2018-02-20T20:09:08.761Z,1013.62
2018-02-20T20:10:08.769Z,1013.68
2018-02-20T20:11:08.772Z,1013.68
2018-02-20T20:12:08.778Z,1013.64
2018-02-20T20:13:08.785Z,1013.66
2018-02-20T20:14:08.789Z,1013.65
2018-02-20T20:15:08.789Z,1013.67
2018-02-20T20:16:08.808Z,1013.68
2018-02-20T20:17:08.802Z,1013.68
2018-02-20T20:18:08.806Z,1013.68
2018-02-20T20:19:08.809Z,1013.68
2018-02-20T20:20:08.814Z,1013.70
2018-02-20T20:21:08.822Z,1013.69
2018-02-20T20:22:08.827Z,1013.66
2018-02-20T20:23:08.826Z,1013.69
2018-02-20T20:24:08.839Z,1013.73
2018-02-20T20:25:08.837Z,1013.74
2018-02-20T20:26:08.895Z,1013.69
2018-02-20T20:27:08.846Z,1013.65
2018-02-20T20:28:08.849Z,1013.70
2018-02-20T20:29:08.854Z,1013.70
2018-02-20T20:30:08.929Z,1013.71
2018-02-20T20:31:08.865Z,1013.74
2018-02-20T20:32:08.870Z,1013.74
2018-02-20T20:33:08.874Z,1013.77
2018-02-20T20:34:08.946Z,1013.76
2018-02-20T20:35:08.898Z,1013.76
2018-02-20T20:36:08.900Z,1013.83
2018-02-20T20:37:08.894Z,1013.82
2018-02-20T20:38:08.909Z,1013.86
2018-02-20T20:39:08.920Z,1013.88
2018-02-20T20:40:08.906Z,1013.87
2018-02-20T20:41:08.912Z,1013.96
2018-02-20T20:42:08.917Z,1013.95
2018-02-20T20:43:08.985Z,1013.91
2018-02-20T20:44:08.926Z,1013.89
2018-02-20T20:45:08.941Z,1013.88
2018-02-20T20:46:08.934Z,1013.92
2018-02-20T20:47:08.943Z,1013.92
2018-02-20T20:48:08.947Z,1013.97
2018-02-20T20:49:08.951Z,1013.94
2018-02-20T20:50:08.955Z,1014.02
2018-02-20T20:51:08.962Z,1014.03
2018-02-20T20:52:08.965Z,1014.01
2018-02-20T20:53:08.973Z,1014.05
2018-02-20T20:54:09.003Z,1014.07
2018-02-20T20:55:08.979Z,1014.10
2018-02-20T20:56:08.985Z,1014.10
2018-02-20T20:57:08.989Z,1014.15
2018-02-20T20:58:08.996Z,1014.16
2018-02-20T20:59:09.007Z,1014.14
2018-02-20T21:00:09.025Z,1014.16
2018-02-20T21:01:09.025Z,1014.17
2018-02-20T21:02:09.066Z,1014.20
2018-02-20T21:03:09.021Z,1014.18
2018-02-20T21:04:09.028Z,1014.25
2018-02-20T21:05:09.757Z,1014.26
2018-02-20T21:06:09.038Z,1014.26
2018-02-20T21:07:09.042Z,1014.30
2018-02-20T21:08:09.046Z,1014.31
2018-02-20T21:09:09.056Z,1014.31
2018-02-20T21:10:09.057Z,1014.40
2018-02-20T21:11:09.061Z,1014.43
2018-02-20T21:12:09.068Z,1014.37
2018-02-20T21:13:09.072Z,1014.42
2018-02-20T21:14:09.076Z,1014.41
2018-02-20T21:15:09.083Z,1014.40
2018-02-20T21:16:09.087Z,1014.40
2018-02-20T21:19:42.051Z,1014.39
2018-02-20T21:20:41.998Z,1014.42
